Time;durP1;ratioP1;P1;durP2;ratioP2;P2;SDS_P1;SDS_P2;PMS_P1;PMS_P2;Temp;Humidity;BMP_temperature;BMP_pressure;BME280_temperature;BME280_humidity;BME280_pressure;Samples;Min_cycle;Max_cycle;Signal;HPM_P1;HPM_P2
2021/12/31 00:00:56;;;;;;;3.33;3.03;;;;;;;9.59;96.88;98918.34;5014934;28;20489;-90
2021/12/31 00:03:25;;;;;;;4.65;3.15;;;;;;;9.69;96.96;98939.03;5016342;28;20033;-90
2021/12/31 00:05:53;;;;;;;3.85;3.45;;;;;;;9.75;96.97;98962.06;5035248;28;20021;-90
2021/12/31 00:08:24;;;;;;;3.88;3.50;;;;;;;9.91;96.99;98985.28;5018922;28;20470;-90
2021/12/31 00:10:56;;;;;;;3.58;3.28;;;;;;;9.56;96.55;98928.69;5035040;28;20033;-90
2021/12/31 00:13:31;;;;;;;2.67;2.47;;;;;;;9.50;97.00;98919.00;5018280;28;20089;-90
2021/12/31 00:15:59;;;;;;;4.25;2.88;;;;;;;9.52;97.01;98922.22;5018293;28;20099;-90
2021/12/31 00:18:49;;;;;;;3.10;2.90;;;;;;;9.66;97.40;98950.19;5018835;28;20022;-90
2021/12/31 00:21:15;;;;;;;3.92;2.33;;;;;;;9.99;97.42;98995.53;5001310;28;20037;-90
2021/12/31 00:23:45;;;;;;;4.15;3.10;;;;;;;9.96;97.04;98996.00;5001955;28;20367;-90
2021/12/31 00:26:41;;;;;;;2.90;2.60;;;;;;;10.12;97.67;99023.78;5034675;28;20026;-89
2021/12/31 00:29:24;;;;;;;2.58;2.30;;;;;;;9.53;97.46;98937.16;5018226;28;20036;-90
2021/12/31 00:31:52;;;;;;;3.00;2.80;;;;;;;9.99;97.47;99002.72;5017943;28;20115;-90
2021/12/31 00:34:24;;;;;;;3.45;2.25;;;;;;;9.63;97.31;98945.34;5018316;28;20066;-91
2021/12/31 00:36:52;;;;;;;2.63;2.35;;;;;;;9.66;96.96;98950.19;5003027;28;20025;-90
2021/12/31 00:39:18;;;;;;;3.80;2.22;;;;;;;9.57;97.38;98924.97;5018240;28;20025;-90
2021/12/31 00:41:49;;;;;;;2.42;2.22;;;;;;;9.92;97.52;98986.88;5018241;28;20453;-89
2021/12/31 00:44:25;;;;;;;5.25;2.42;;;;;;;10.03;97.64;98996.69;5018340;28;20022;-90
2021/12/31 00:46:56;;;;;;;2.70;2.50;;;;;;;9.92;97.64;98978.88;5017628;28;20024;-90
2021/12/31 00:49:29;;;;;;;2.97;2.30;;;;;;;10.15;97.26;99024.13;5021967;28;20017;-89
2021/12/31 00:51:55;;;;;;;2.00;1.90;;;;;;;9.78;97.17;98961.59;5037972;28;20133;-90
2021/12/31 00:54:26;;;;;;;5.28;2.88;;;;;;;9.99;97.17;99011.53;5030452;28;20006;-90
2021/12/31 00:57:02;;;;;;;2.05;1.95;;;;;;;9.58;97.12;98932.72;5067042;28;20060;-92
2021/12/31 00:59:35;;;;;;;;;;;;;;;10.13;97.45;99025.41;5021467;28;20079;-90
2021/12/31 01:02:11;;;;;;;2.55;1.90;;;;;;;9.60;97.54;98962.63;5020847;28;19924;-92
2021/12/31 01:04:46;;;;;;;2.60;2.40;;;;;;;9.78;97.53;98998.91;5020119;28;20025;-91
2021/12/31 01:07:27;;;;;;;3.63;2.63;;;;;;;9.51;97.35;98933.91;5010482;28;20021;-92
2021/12/31 01:09:56;;;;;;;3.88;2.25;;;;;;;9.62;97.35;98951.72;5016785;28;20049;-92
2021/12/31 01:12:25;;;;;;;2.65;2.45;;;;;;;9.99;97.29;99010.72;5036444;28;20037;-90
2021/12/31 01:20:42;;;;;;;3.00;2.53;;;;;;;9.98;96.98;99017.13;5034267;28;20101;-92
2021/12/31 01:23:16;;;;;;;3.15;2.85;;;;;;;9.54;96.94;98952.91;5016536;28;20029;-91
2021/12/31 01:25:42;;;;;;;3.78;2.63;;;;;;;9.45;96.54;98934.88;5016936;28;20029;-90
2021/12/31 01:28:07;;;;;;;3.80;2.50;;;;;;;10.11;96.83;99044.31;5016348;28;20509;-92
2021/12/31 01:30:33;;;;;;;4.10;2.83;;;;;;;9.51;96.36;98937.41;5009814;28;20025;-92
2021/12/31 01:32:58;;;;;;;2.60;2.33;;;;;;;9.98;96.58;99017.13;5013589;28;20053;-91
2021/12/31 01:35:24;;;;;;;3.53;2.40;;;;;;;9.47;96.69;98935.44;5024036;28;20048;-90
2021/12/31 01:37:49;;;;;;;4.50;2.67;;;;;;;9.95;96.67;99022.94;5040351;28;20033;-92
2021/12/31 01:40:19;;;;;;;4.63;2.63;;;;;;;10.10;96.46;99056.00;5018489;28;20017;-92
2021/12/31 01:42:48;;;;;;;3.40;3.10;;;;;;;9.46;96.06;98939.16;5033518;28;20029;-90
2021/12/31 01:45:23;;;;;;;5.07;3.28;;;;;;;9.57;96.03;98960.41;5017312;28;20029;-92
2021/12/31 01:48:06;;;;;;;3.40;3.10;;;;;;;9.60;96.83;98969.78;5023101;28;20037;-91
2021/12/31 01:50:36;;;;;;;3.60;3.20;;;;;;;9.74;96.98;98987.13;5028059;28;20033;-92
2021/12/31 01:53:05;;;;;;;3.72;2.92;;;;;;;10.06;96.81;99033.53;5010221;28;20023;-91
2021/12/31 01:55:33;;;;;;;2.85;2.65;;;;;;;9.79;96.87;98992.53;5034269;28;20490;-91
2021/12/31 01:58:12;;;;;;;3.88;2.67;;;;;;;9.56;96.72;98961.47;5021071;28;20032;-91
2021/12/31 02:00:40;;;;;;;4.15;2.55;;;;;;;9.53;96.30;98953.13;5036411;28;20064;-91
2021/12/31 02:03:14;;;;;;;4.07;2.35;;;;;;;10.04;96.86;99042.81;5015322;28;20123;-92
2021/12/31 02:05:39;;;;;;;3.88;2.38;;;;;;;9.67;96.98;98981.13;5015351;28;20013;-91
2021/12/31 02:08:22;;;;;;;2.70;2.50;;;;;;;9.57;97.13;98973.75;5014529;28;20504;-92
2021/12/31 02:11:01;;;;;;;2.53;2.33;;;;;;;9.53;96.83;98961.13;5015612;28;20079;-92
2021/12/31 02:13:36;;;;;;;3.97;2.83;;;;;;;9.56;96.72;98974.81;5016000;28;20117;-90
2021/12/31 02:16:11;;;;;;;3.17;2.90;;;;;;;9.40;96.73;98954.25;5017156;28;20021;-90
2021/12/31 02:18:44;;;;;;;4.30;2.53;;;;;;;9.45;96.68;98953.53;5017304;28;20021;-90
2021/12/31 02:21:22;;;;;;;2.70;2.47;;;;;;;9.37;96.60;98946.72;5016680;28;20263;-90
2021/12/31 02:23:56;;;;;;;2.90;2.58;;;;;;;9.99;97.32;99042.72;5011624;28;20069;-91
2021/12/31 02:26:39;;;;;;;3.17;2.88;;;;;;;9.85;97.14;99014.75;5016207;28;20113;-90
2021/12/31 02:29:08;;;;;;;3.00;2.60;;;;;;;9.38;96.57;98945.69;5002204;28;20041;-90
2021/12/31 02:31:36;;;;;;;3.60;2.70;;;;;;;9.33;96.73;98928.78;5000484;28;20084;-90
2021/12/31 02:34:02;;;;;;;2.55;2.35;;;;;;;9.37;96.88;98948.59;5016715;28;20037;-90
2021/12/31 02:36:28;;;;;;;6.97;2.70;;;;;;;9.96;96.74;99029.88;5016219;28;20116;-90
2021/12/31 02:39:24;;;;;;;2.55;2.35;;;;;;;9.59;96.82;98973.50;5017342;28;20057;-90
2021/12/31 02:41:49;;;;;;;3.20;2.90;;;;;;;9.37;96.89;98929.94;5018798;28;20037;-90
2021/12/31 02:44:20;;;;;;;6.25;3.15;;;;;;;9.29;96.66;98923.13;5015635;28;20033;-90
2021/12/31 02:46:51;;;;;;;3.20;2.90;;;;;;;9.94;96.60;99018.66;5015975;28;20032;-90
2021/12/31 02:49:24;;;;;;;4.47;2.83;;;;;;;9.34;96.71;98925.09;5015905;28;20026;-90
2021/12/31 02:52:02;;;;;;;3.30;2.53;;;;;;;9.59;96.70;98965.50;5015956;28;20029;-90
2021/12/31 02:54:43;;;;;;;3.55;2.63;;;;;;;9.74;96.52;98989.78;5016477;28;20017;-90
2021/12/31 02:57:14;;;;;;;5.47;2.83;;;;;;;9.59;96.92;98966.31;4999845;28;20116;-90
2021/12/31 02:59:46;;;;;;;5.25;2.83;;;;;;;9.32;96.33;98920.00;4999491;28;20029;-88
2021/12/31 03:02:20;;;;;;;4.63;3.10;;;;;;;9.60;96.76;98959.94;5014751;28;20040;-88
2021/12/31 03:04:51;;;;;;;3.35;3.05;;;;;;;9.22;96.93;98908.34;5015932;28;20068;-88
2021/12/31 03:07:21;;;;;;;2.83;2.40;;;;;;;9.56;96.68;98961.47;5029971;28;20052;-90
2021/12/31 03:09:56;;;;;;;3.50;2.80;;;;;;;9.26;96.86;98912.94;5012255;28;20026;-88
2021/12/31 03:12:25;;;;;;;5.25;2.50;;;;;;;9.55;96.45;98959.03;5016400;28;20036;-89
2021/12/31 03:14:54;;;;;;;2.80;2.60;;;;;;;9.90;96.84;99015.66;5063775;28;20084;-91
2021/12/31 03:17:29;;;;;;;2.22;2.03;;;;;;;9.30;95.99;98934.59;5034570;28;20030;-88
2021/12/31 03:20:09;;;;;;;5.60;2.92;;;;;;;9.33;96.27;98939.44;5015511;28;20060;-89
2021/12/31 03:22:43;;;;;;;2.50;2.30;;;;;;;9.52;96.42;98967.53;5026416;28;20051;-90
2021/12/31 03:25:10;;;;;;;3.17;2.40;;;;;;;9.66;96.83;98993.63;5038246;28;20021;-88
2021/12/31 03:27:36;;;;;;;5.25;4.18;;;;;;;9.69;96.45;98998.50;5016168;28;20017;-89
2021/12/31 03:30:04;;;;;;;2.95;2.70;;;;;;;9.44;96.15;98962.56;5015192;28;20048;-89
2021/12/31 03:32:32;;;;;;;5.45;2.75;;;;;;;9.79;96.66;99013.84;5014673;28;20025;-89
2021/12/31 03:35:01;;;;;;;3.35;3.05;;;;;;;9.37;96.42;98943.25;5014319;28;20105;-89
2021/12/31 03:37:31;;;;;;;2.65;2.45;;;;;;;9.64;96.01;98989.59;4995262;28;20037;-89
2021/12/31 03:40:08;;;;;;;6.85;2.50;;;;;;;9.22;96.17;98927.78;4999140;28;20030;-89
2021/12/31 03:42:36;;;;;;;5.35;2.53;;;;;;;9.29;96.49;98932.97;4998795;28;20128;-89
2021/12/31 03:45:03;;;;;;;2.15;1.98;;;;;;;9.48;96.29;98966.38;5011804;28;20037;-89
2021/12/31 03:47:36;;;;;;;2.35;2.15;;;;;;;9.70;96.75;99000.09;5018616;28;20489;-89
2021/12/31 03:50:05;;;;;;;3.15;2.70;;;;;;;9.85;96.14;99020.88;5018651;28;20032;-89
2021/12/31 03:52:34;;;;;;;6.60;3.10;;;;;;;9.71;96.40;98998.25;5018658;28;20103;-89
2021/12/31 03:55:10;;;;;;;4.30;2.90;;;;;;;9.32;95.63;98937.84;5018610;28;20030;-88
2021/12/31 03:57:43;;;;;;;6.15;3.08;;;;;;;9.23;96.16;98928.59;5018612;28;20525;-90
2021/12/31 04:00:40;;;;;;;3.38;2.65;;;;;;;9.31;95.83;98939.69;5017457;28;20049;-89
2021/12/31 04:03:10;;;;;;;3.92;3.10;;;;;;;9.52;96.20;98976.31;5018302;28;20027;-89
2021/12/31 04:05:42;;;;;;;4.13;2.70;;;;;;;9.19;96.13;98927.47;5034614;28;20026;-89
2021/12/31 04:08:22;;;;;;;4.13;2.42;;;;;;;9.60;95.75;98983.94;5018209;28;20143;-88
2021/12/31 04:10:50;;;;;;;3.78;2.92;;;;;;;9.32;96.13;98943.16;5032071;28;20040;-90
2021/12/31 04:13:18;;;;;;;2.95;2.40;;;;;;;9.25;95.88;98932.66;5018040;28;20083;-89
2021/12/31 04:16:06;;;;;;;2.80;2.42;;;;;;;9.48;95.99;98971.72;5017828;28;20394;-89
2021/12/31 04:18:54;;;;;;;4.35;2.47;;;;;;;9.34;95.91;98951.72;5034670;28;20021;-89
2021/12/31 04:21:44;;;;;;;3.35;3.05;;;;;;;9.82;95.98;99019.53;5017862;28;20045;-89
2021/12/31 04:24:27;;;;;;;3.10;2.63;;;;;;;9.21;95.80;98938.69;5017521;28;20037;-89
2021/12/31 04:26:59;;;;;;;4.03;3.53;;;;;;;9.22;96.02;98925.13;5018060;28;20029;-90
2021/12/31 04:29:39;;;;;;;3.50;2.50;;;;;;;9.64;96.14;98992.25;5017847;28;20025;-89
2021/12/31 04:32:07;;;;;;;4.50;2.67;;;;;;;9.42;95.69;98961.97;5017670;28;20064;-89
2021/12/31 04:34:35;;;;;;;3.67;2.65;;;;;;;9.20;96.22;98929.88;5018093;28;20124;-89
2021/12/31 04:37:07;;;;;;;5.03;2.92;;;;;;;9.22;95.60;98922.47;5017710;28;20386;-89
2021/12/31 04:39:41;;;;;;;3.50;2.47;;;;;;;9.52;95.97;98980.84;5017828;28;20433;-89
2021/12/31 04:42:12;;;;;;;3.97;2.78;;;;;;;9.49;95.95;98979.47;5007393;28;20147;-89
2021/12/31 04:44:38;;;;;;;2.85;2.65;;;;;;;9.59;95.95;98992.16;4998168;28;20025;-89
2021/12/31 04:47:07;;;;;;;4.63;2.42;;;;;;;9.18;95.60;98934.63;4997965;28;20029;-89
2021/12/31 04:52:27;;;;;;;3.67;2.70;;;;;;;9.59;95.95;98997.47;5012280;28;20605;-89
2021/12/31 04:54:55;;;;;;;3.78;2.47;;;;;;;9.18;95.91;98931.97;4998132;28;20021;-90
2021/12/31 05:01:15;;;;;;;3.80;3.00;;;;;;;9.78;96.10;99030.91;4992833;28;20034;-89
2021/12/31 05:03:44;;;;;;;2.60;2.40;;;;;;;9.49;96.44;98989.31;4976875;28;20030;-90
2021/12/31 05:06:15;;;;;;;2.60;2.40;;;;;;;9.12;95.92;98924.13;4976751;28;20490;-89
2021/12/31 05:08:43;;;;;;;4.55;2.45;;;;;;;9.13;96.04;98923.88;4976505;28;20061;-90
2021/12/31 05:11:13;;;;;;;5.22;2.60;;;;;;;9.15;95.91;98926.31;4986867;28;20041;-89
2021/12/31 05:13:38;;;;;;;4.50;2.60;;;;;;;9.41;96.47;98971.03;5032172;28;20048;-90
2021/12/31 05:16:30;;;;;;;;;;;;;;;;;;;;;
2021/12/31 05:22:15;;;;;;;3.13;2.63;;;;;;;9.41;96.05;98965.72;5029518;28;20037;-89
2021/12/31 05:24:56;;;;;;;4.68;2.47;;;;;;;9.57;96.18;98994.25;5033718;28;20021;-90
2021/12/31 05:27:24;;;;;;;4.50;2.83;;;;;;;9.12;95.92;98926.78;5019080;28;20057;-88
2021/12/31 05:29:55;;;;;;;3.78;2.72;;;;;;;9.52;96.35;98997.63;5050409;28;20375;-89
2021/12/31 05:32:26;;;;;;;3.00;2.40;;;;;;;9.20;96.45;98937.88;5046869;28;20025;-90
2021/12/31 05:34:51;;;;;;;4.47;3.85;;;;;;;9.40;96.13;98956.09;5036321;28;20026;-89
2021/12/31 05:37:18;;;;;;;5.90;2.58;;;;;;;9.20;96.45;98926.41;5019233;28;20025;-89
2021/12/31 05:39:46;;;;;;;2.53;2.33;;;;;;;9.52;96.13;98980.84;5020417;28;20036;-90
2021/12/31 05:42:13;;;;;;;2.85;2.50;;;;;;;9.64;96.10;98993.06;5050460;28;20026;-88
2021/12/31 05:44:38;;;;;;;7.47;3.30;;;;;;;9.58;95.88;98983.38;5007127;28;20057;-88
2021/12/31 05:47:04;;;;;;;5.55;2.80;;;;;;;9.47;95.97;98962.09;4997731;28;20022;-88
2021/12/31 05:49:29;;;;;;;5.85;3.08;;;;;;;9.61;96.52;98990.88;5015624;28;20051;-86
2021/12/31 05:51:55;;;;;;;3.25;2.95;;;;;;;9.55;96.27;98969.69;4999331;28;20091;-86
2021/12/31 05:54:20;;;;;;;6.22;3.25;;;;;;;9.44;96.41;98966.03;5015664;28;20072;-86
2021/12/31 05:56:49;;;;;;;5.57;3.42;;;;;;;9.65;96.44;98986.66;5019763;28;20143;-87
2021/12/31 05:59:23;;;;;;;3.50;3.15;;;;;;;9.61;96.38;98980.19;5031475;28;20033;-86
2021/12/31 06:01:49;;;;;;;6.07;3.80;;;;;;;9.61;96.50;98979.41;5030444;28;20116;-87
2021/12/31 06:04:15;;;;;;;5.85;3.38;;;;;;;9.54;96.38;98968.91;5031708;28;20064;-88
2021/12/31 06:06:43;;;;;;;9.35;4.00;;;;;;;9.24;96.22;98925.69;5015020;28;20026;-87
2021/12/31 06:09:09;;;;;;;6.07;3.50;;;;;;;9.49;96.54;98966.13;5032694;28;20021;-87
2021/12/31 06:11:34;;;;;;;8.75;4.10;;;;;;;9.68;96.13;99001.38;5015175;28;20022;-87
2021/12/31 06:14:01;;;;;;;6.65;3.90;;;;;;;9.41;96.53;98963.88;5014847;28;20481;-87
2021/12/31 06:16:48;;;;;;;5.22;4.72;;;;;;;9.12;96.15;98902.81;5006979;28;20032;-87
2021/12/31 06:52:53;;;;;;;;;;;;;;;;;;;;;
2021/12/31 07:26:59;;;;;;;9.05;4.57;;;;;;;9.67;96.56;99013.91;4816813;29;20517;-85
2021/12/31 07:29:48;;;;;;;9.88;4.25;;;;;;;9.32;96.61;98959.13;4835561;29;20030;-84
2021/12/31 07:43:08;;;;;;;5.57;3.92;;;;;;;9.52;96.76;98976.31;4860397;29;20077;-84
2021/12/31 07:52:40;;;;;;;11.45;4.30;;;;;;;9.25;96.60;98945.97;4871771;29;20139;-84
2021/12/31 07:55:14;;;;;;;10.15;4.63;;;;;;;9.26;96.15;98933.47;4935955;29;20392;-84
2021/12/31 07:58:01;;;;;;;9.55;4.15;;;;;;;9.34;95.95;98946.41;4979314;28;20389;-84
2021/12/31 08:00:34;;;;;;;8.45;3.60;;;;;;;9.35;96.32;98940.03;4991703;28;20029;-84
2021/12/31 08:03:15;;;;;;;6.10;4.35;;;;;;;9.30;96.22;98934.59;4996289;28;20044;-84
2021/12/31 08:05:51;;;;;;;8.73;5.78;;;;;;;9.26;96.39;98930.81;5006158;28;20029;-85
2021/12/31 08:08:22;;;;;;;6.18;4.20;;;;;;;9.27;96.20;98940.38;5012470;28;20037;-84
2021/12/31 08:11:03;;;;;;;5.93;3.88;;;;;;;9.39;96.24;98951.81;4997296;28;20072;-86
2021/12/31 08:13:32;;;;;;;6.57;3.80;;;;;;;9.29;95.68;98939.13;5013622;28;20402;-83
2021/12/31 08:15:57;;;;;;;7.20;4.03;;;;;;;9.22;95.89;98935.00;5005133;28;20029;-83
2021/12/31 08:18:45;;;;;;;8.50;4.78;;;;;;;9.28;95.66;98950.81;4996198;28;20036;-84
2021/12/31 08:21:13;;;;;;;6.72;4.32;;;;;;;9.25;96.09;98937.16;4991171;28;20033;-83
2021/12/31 08:23:44;;;;;;;9.10;4.18;;;;;;;9.29;95.54;98938.28;4989509;28;20080;-84
2021/12/31 08:26:09;;;;;;;6.60;3.95;;;;;;;9.20;95.38;98921.88;5007942;28;20033;-84
2021/12/31 08:28:39;;;;;;;10.05;4.72;;;;;;;9.25;95.17;98924.66;4989044;28;20033;-84
2021/12/31 08:31:08;;;;;;;6.97;4.20;;;;;;;9.17;95.55;98917.06;4991905;28;20026;-84
2021/12/31 08:33:36;;;;;;;7.13;4.18;;;;;;;9.37;95.84;98954.69;4994207;28;20453;-84
2021/12/31 08:36:02;;;;;;;7.13;3.95;;;;;;;9.20;95.62;98935.22;5010038;28;20496;-86
2021/12/31 08:38:28;;;;;;;8.82;4.50;;;;;;;9.35;95.47;98956.78;5011043;28;20116;-84
2021/12/31 08:40:54;;;;;;;6.82;4.28;;;;;;;9.21;95.59;98936.03;5013957;28;20034;-84
2021/12/31 08:43:22;;;;;;;7.57;4.00;;;;;;;9.18;95.57;98931.97;5010655;28;20026;-84
2021/12/31 08:45:47;;;;;;;5.63;4.18;;;;;;;9.22;96.21;98942.97;5013664;28;20050;-84
2021/12/31 08:48:13;;;;;;;9.00;4.50;;;;;;;9.46;95.25;98984.44;4990552;28;20534;-84
2021/12/31 08:50:39;;;;;;;9.15;4.45;;;;;;;9.30;95.40;98950.59;5008320;28;20033;-84
2021/12/31 08:53:05;;;;;;;8.40;3.72;;;;;;;9.50;96.06;98972.28;5009223;28;20033;-84
2021/12/31 08:55:34;;;;;;;5.70;3.95;;;;;;;9.18;95.95;98921.31;4994132;28;20029;-85
2021/12/31 08:57:59;;;;;;;11.20;4.32;;;;;;;9.16;95.38;98923.41;5005424;28;20026;-84
2021/12/31 09:00:24;;;;;;;5.55;4.03;;;;;;;9.20;95.70;98921.06;5008056;28;20018;-85
2021/12/31 09:02:53;;;;;;;5.55;3.90;;;;;;;9.28;95.77;98942.84;4992455;28;20149;-86
2021/12/31 09:05:18;;;;;;;6.53;4.20;;;;;;;9.20;95.84;98916.56;5010739;28;20462;-85
2021/12/31 09:10:58;;;;;;;6.15;3.90;;;;;;;9.41;95.65;98955.06;4981839;28;20034;-85
2021/12/31 09:13:26;;;;;;;7.40;4.13;;;;;;;9.30;95.63;98947.91;4993208;28;20027;-84
2021/12/31 09:15:57;;;;;;;6.30;4.20;;;;;;;9.19;95.77;98930.94;5009798;28;20022;-84
2021/12/31 09:18:23;;;;;;;7.82;4.50;;;;;;;9.29;95.89;98947.09;5016060;28;20052;-84
2021/12/31 09:20:49;;;;;;;8.00;4.07;;;;;;;9.21;95.43;98944.81;5009657;28;20064;-84
2021/12/31 09:23:15;;;;;;;8.80;4.18;;;;;;;9.22;95.35;98945.66;4997415;28;20018;-84
2021/12/31 09:25:40;;;;;;;5.07;3.97;;;;;;;9.25;95.28;98956.63;5013104;28;20022;-84
2021/12/31 09:28:06;;;;;;;6.45;3.45;;;;;;;9.20;95.36;98945.03;4987161;28;20391;-85
2021/12/31 09:30:31;;;;;;;8.25;3.85;;;;;;;9.22;95.17;98943.75;4990440;28;20390;-85
2021/12/31 09:32:57;;;;;;;4.90;3.88;;;;;;;9.37;95.44;98967.25;5009442;28;20022;-85
2021/12/31 09:35:22;;;;;;;9.27;3.45;;;;;;;9.23;95.82;98944.56;4990752;28;20033;-84
2021/12/31 09:37:51;;;;;;;5.15;3.95;;;;;;;9.19;95.33;98940.78;5012627;28;20081;-85
2021/12/31 09:40:18;;;;;;;8.90;3.83;;;;;;;9.60;95.54;98993.78;4992305;28;20041;-84
2021/12/31 09:42:59;;;;;;;8.32;3.70;;;;;;;9.48;95.44;98972.50;5006275;28;20410;-85
2021/12/31 09:45:27;;;;;;;6.60;3.90;;;;;;;9.39;95.51;98967.81;5008121;28;20148;-85
2021/12/31 09:47:59;;;;;;;5.95;3.55;;;;;;;9.32;95.86;98959.13;4996449;28;20086;-85
2021/12/31 09:50:27;;;;;;;7.05;3.63;;;;;;;9.24;95.76;98949.66;4994598;28;20064;-85
2021/12/31 09:52:59;;;;;;;6.82;3.80;;;;;;;9.25;94.91;98956.63;4999979;28;20465;-86
2021/12/31 09:55:34;;;;;;;4.70;4.20;;;;;;;9.60;95.15;99012.44;5010949;28;20057;-85
2021/12/31 09:58:22;;;;;;;4.28;3.10;;;;;;;9.33;95.18;98964.22;5011653;28;20437;-86
2021/12/31 10:00:57;;;;;;;11.43;3.70;;;;;;;9.32;95.18;98959.97;5003455;28;20725;-85
2021/12/31 10:03:33;;;;;;;5.00;3.42;;;;;;;9.31;95.31;98952.19;4986376;28;20065;-85
2021/12/31 10:06:19;;;;;;;6.90;3.47;;;;;;;9.48;95.20;98964.50;5009492;28;20087;-86
2021/12/31 10:08:57;;;;;;;6.13;3.40;;;;;;;9.43;95.02;98952.97;5009700;28;20117;-86
2021/12/31 10:11:41;;;;;;;8.15;3.50;;;;;;;9.39;94.89;98959.81;4987960;28;20030;-87
2021/12/31 10:14:07;;;;;;;8.55;3.70;;;;;;;9.76;95.23;99012.47;4992610;28;20049;-87
2021/12/31 10:16:37;;;;;;;7.93;3.83;;;;;;;9.71;94.79;99000.91;4989102;28;20030;-84
2021/12/31 10:19:26;;;;;;;11.63;4.03;;;;;;;9.75;94.08;98980.72;5016015;28;20030;-86
2021/12/31 10:21:56;;;;;;;5.75;4.00;;;;;;;9.66;93.96;98956.31;4994107;28;20060;-86
2021/12/31 10:24:37;;;;;;;9.23;3.88;;;;;;;10.00;93.63;98997.19;4995886;28;20508;-86
2021/12/31 10:27:16;;;;;;;6.30;3.78;;;;;;;10.01;94.32;98996.09;5010590;28;20041;-85
2021/12/31 10:29:57;;;;;;;7.05;3.92;;;;;;;9.63;93.96;98935.47;5009952;28;20041;-86
2021/12/31 10:32:49;;;;;;;4.78;3.78;;;;;;;9.63;94.14;98932.81;5007984;28;20402;-86
2021/12/31 10:35:24;;;;;;;7.03;3.67;;;;;;;9.63;93.84;98930.13;5007575;28;20038;-87
2021/12/31 10:38:04;;;;;;;4.35;3.38;;;;;;;9.95;93.99;98982.94;5001511;28;20434;-86
2021/12/31 10:40:30;;;;;;;6.97;3.80;;;;;;;9.66;94.09;98940.31;5002259;28;20037;-85
2021/12/31 10:43:26;;;;;;;5.68;3.80;;;;;;;9.96;94.04;98992.56;5007766;28;20508;-86
2021/12/31 10:46:04;;;;;;;3.83;3.42;;;;;;;9.94;94.21;98968.78;4999777;28;20107;-87
2021/12/31 10:48:54;;;;;;;3.97;3.55;;;;;;;9.74;94.34;98936.47;5005384;28;20049;-85
2021/12/31 10:51:46;;;;;;;6.03;3.85;;;;;;;9.65;93.96;98917.38;5011012;28;20030;-85
2021/12/31 10:57:10;;;;;;;3.50;2.80;;;;;;;9.88;94.28;98934.28;5006106;28;20456;-87
2021/12/31 10:59:37;;;;;;;5.25;3.75;;;;;;;10.03;94.14;98950.53;5004177;28;20081;-86
2021/12/31 11:02:07;;;;;;;4.35;3.25;;;;;;;10.17;94.30;98967.88;5010328;28;20034;-87
2021/12/31 11:04:34;;;;;;;8.55;3.38;;;;;;;10.22;93.85;98970.63;5002123;28;20471;-86
2021/12/31 11:07:01;;;;;;;7.88;3.80;;;;;;;10.24;94.20;98963.97;4994195;28;20026;-86
2021/12/31 11:09:31;;;;;;;9.93;4.05;;;;;;;10.29;94.16;98966.72;5010165;28;20088;-86
2021/12/31 11:11:58;;;;;;;8.77;3.90;;;;;;;10.00;94.14;98917.19;4994328;28;20116;-86
2021/12/31 11:15:01;;;;;;;7.32;3.83;;;;;;;10.35;94.21;98960.41;5010036;28;20084;-88
2021/12/31 11:20:57;;;;;;;6.35;3.10;;;;;;;10.25;93.73;98906.91;5163804;22;20132;-86
2021/12/31 11:23:50;;;;;;;9.70;4.07;;;;;;;10.49;93.81;98937.69;5058633;28;20071;-86
2021/12/31 11:26:28;;;;;;;3.72;3.30;;;;;;;10.19;93.17;98896.41;5065453;28;20032;-86
2021/12/31 11:28:55;;;;;;;3.53;3.13;;;;;;;10.56;93.09;98945.53;5070188;28;20134;-86
2021/12/31 11:31:25;;;;;;;8.50;3.10;;;;;;;10.63;93.28;98945.34;5065909;28;20025;-87
2021/12/31 11:34:01;;;;;;;5.47;3.13;;;;;;;10.66;93.02;98948.31;5061006;28;20032;-86
2021/12/31 11:36:43;;;;;;;3.72;3.22;;;;;;;10.34;92.78;98892.13;5065232;28;20021;-87
2021/12/31 11:39:32;;;;;;;8.48;3.10;;;;;;;10.73;92.81;98943.63;5069340;22;20041;-87
2021/12/31 11:42:00;;;;;;;3.30;3.00;;;;;;;10.77;92.77;98946.63;5051203;28;20036;-89
2021/12/31 11:44:27;;;;;;;4.70;3.45;;;;;;;10.77;92.48;98941.28;5042275;28;20056;-89
2021/12/31 11:47:13;;;;;;;3.17;2.88;;;;;;;10.82;92.45;98941.31;5039330;28;20025;-90
2021/12/31 11:49:40;;;;;;;3.63;3.20;;;;;;;10.79;92.46;98939.94;5040074;28;20427;-90
2021/12/31 11:52:13;;;;;;;8.30;3.60;;;;;;;10.87;92.13;98946.75;5053341;28;20136;-89
2021/12/31 11:54:40;;;;;;;7.60;3.15;;;;;;;10.86;91.89;98950.44;5053081;28;20055;-89
2021/12/31 11:57:26;;;;;;;5.78;4.65;;;;;;;10.90;91.50;98955.06;5036394;28;20497;-90
2021/12/31 11:59:54;;;;;;;5.20;3.35;;;;;;;10.75;92.26;98927.34;5035231;28;20025;-90
2021/12/31 12:02:39;;;;;;;6.22;3.55;;;;;;;10.89;92.30;98956.13;5052820;28;20039;-90
2021/12/31 12:05:12;;;;;;;4.65;3.03;;;;;;;10.91;91.41;98955.88;5035385;28;20095;-88
2021/12/31 12:07:45;;;;;;;5.03;3.20;;;;;;;10.92;91.87;98962.84;5036824;28;20029;-90
2021/12/31 12:10:19;;;;;;;3.10;2.65;;;;;;;10.92;91.79;98960.16;5016542;28;20128;-89
2021/12/31 12:12:50;;;;;;;7.28;3.78;;;;;;;10.92;91.98;98960.16;5036925;28;20036;-89
2021/12/31 12:15:15;;;;;;;8.02;3.72;;;;;;;10.93;91.71;98961.75;5053247;28;20033;-90
2021/12/31 12:17:45;;;;;;;3.95;3.17;;;;;;;10.92;91.45;98955.59;5052749;28;20502;-88
2021/12/31 12:20:13;;;;;;;7.13;3.17;;;;;;;10.91;91.40;98959.34;5022638;28;20163;-89
2021/12/31 12:22:54;;;;;;;7.70;3.42;;;;;;;10.90;91.78;98956.94;5035912;28;20493;-89
2021/12/31 12:25:39;;;;;;;4.18;3.42;;;;;;;10.87;91.47;98952.06;5053887;28;20033;-89
2021/12/31 12:28:09;;;;;;;3.55;2.90;;;;;;;10.91;91.91;98953.19;5052719;28;20017;-89
2021/12/31 12:30:38;;;;;;;6.97;3.55;;;;;;;10.91;91.20;98947.84;5034870;28;20033;-89
2021/12/31 12:35:36;;;;;;;6.63;4.05;;;;;;;10.90;91.06;98927.56;5037443;28;20381;-89
2021/12/31 12:38:11;;;;;;;10.95;4.22;;;;;;;10.90;90.96;98932.91;5053126;28;20092;-89
2021/12/31 12:41:08;;;;;;;6.05;3.63;;;;;;;10.87;90.79;98928.88;5052896;28;20029;-89
2021/12/31 12:43:36;;;;;;;3.58;3.28;;;;;;;10.88;91.00;98932.31;5053091;28;20386;-89
2021/12/31 12:46:07;;;;;;;6.15;3.55;;;;;;;10.84;91.20;98921.34;5035665;28;20036;-90
2021/12/31 12:48:38;;;;;;;3.70;3.20;;;;;;;10.85;90.94;98922.16;5035127;28;20040;-90
2021/12/31 12:51:14;;;;;;;4.07;3.55;;;;;;;10.81;91.32;98916.47;5035441;28;20029;-90
2021/12/31 12:53:42;;;;;;;4.82;3.00;;;;;;;10.82;91.42;98904.75;5035177;28;20029;-89
2021/12/31 12:56:15;;;;;;;7.20;3.63;;;;;;;10.81;91.32;98915.69;5018869;28;20117;-91
2021/12/31 12:58:51;;;;;;;4.35;3.13;;;;;;;10.79;91.23;98917.81;5038041;28;20029;-90
2021/12/31 13:01:16;;;;;;;3.80;2.83;;;;;;;10.70;91.49;98895.25;5054243;28;20036;-90
2021/12/31 13:03:54;;;;;;;4.85;3.53;;;;;;;10.77;91.39;98910.03;5039300;28;20037;-89
2021/12/31 13:06:23;;;;;;;6.28;3.33;;;;;;;10.76;91.45;98896.94;5039971;28;20529;-90
2021/12/31 13:08:48;;;;;;;3.83;3.33;;;;;;;10.75;91.83;98906.81;5023176;28;20028;-89
2021/12/31 13:11:16;;;;;;;4.25;3.35;;;;;;;10.74;91.68;98909.72;5038937;28;20025;-90
2021/12/31 13:13:41;;;;;;;3.70;3.30;;;;;;;10.68;91.10;98897.38;5056180;28;20370;-89
2021/12/31 13:16:07;;;;;;;5.07;2.72;;;;;;;10.70;91.44;98885.41;5022943;28;20028;-91
2021/12/31 13:18:36;;;;;;;7.68;3.53;;;;;;;10.72;91.30;98879.81;5039659;28;20055;-90
2021/12/31 13:21:02;;;;;;;4.85;3.38;;;;;;;10.72;91.49;98890.47;5055553;28;20031;-89
2021/12/31 13:23:27;;;;;;;5.80;3.30;;;;;;;10.69;91.37;98886.44;5055560;28;20025;-89
2021/12/31 13:25:53;;;;;;;4.45;2.85;;;;;;;10.69;91.18;98875.75;5022146;28;20489;-89
2021/12/31 13:28:40;;;;;;;4.13;3.30;;;;;;;10.59;91.87;98856.97;5038474;28;20029;-90
2021/12/31 13:31:09;;;;;;;3.72;3.42;;;;;;;10.67;91.60;98863.72;5055718;28;20696;-89
2021/12/31 13:33:48;;;;;;;4.70;3.17;;;;;;;10.66;91.89;98876.25;5023428;28;20013;-89
2021/12/31 13:36:15;;;;;;;4.60;3.63;;;;;;;10.69;91.53;98890.97;5056441;28;20533;-90
2021/12/31 13:38:59;;;;;;;7.75;3.33;;;;;;;10.66;91.47;98897.59;5055395;28;20036;-90
2021/12/31 13:41:26;;;;;;;7.40;3.47;;;;;;;10.63;91.24;98898.13;5055670;28;20017;-90
2021/12/31 13:43:53;;;;;;;6.88;3.40;;;;;;;10.66;91.82;98891.47;5022298;28;20013;-89
2021/12/31 13:46:27;;;;;;;6.10;3.13;;;;;;;10.64;91.94;98885.59;5055258;28;20024;-89
2021/12/31 13:49:10;;;;;;;2.83;2.63;;;;;;;10.53;91.48;98877.44;5055133;28;20056;-89
2021/12/31 13:51:38;;;;;;;3.80;3.13;;;;;;;10.62;91.55;98882.31;5055513;28;20020;-90
2021/12/31 13:54:12;;;;;;;3.20;2.90;;;;;;;10.60;91.70;98879.91;5055168;28;20025;-90
2021/12/31 13:56:39;;;;;;;4.25;2.88;;;;;;;10.61;91.39;98891.41;5054711;28;20025;-90